sensor_id;sensor_type;location;lat;lon;timestamp;temperature;humidity
32839;DHT22;19182;41.820;12.808;2023-03-20T00:00:43;10.30;99.90
32839;DHT22;19182;41.820;12.808;2023-03-20T00:03:10;10.20;99.90
32839;DHT22;19182;41.820;12.808;2023-03-20T00:05:36;10.20;99.90
32839;DHT22;19182;41.820;12.808;2023-03-20T00:08:02;10.20;99.90
32839;DHT22;19182;41.820;12.808;2023-03-20T00:10:34;10.10;99.90
32839;DHT22;19182;41.820;12.808;2023-03-20T00:13:01;10.00;99.90
32839;DHT22;19182;41.820;12.808;2023-03-20T00:15:38;10.00;99.90
32839;DHT22;19182;41.820;12.808;2023-03-20T00:18:24;10.00;99.90
32839;DHT22;19182;41.820;12.808;2023-03-20T00:20:51;10.00;99.90
32839;DHT22;19182;41.820;12.808;2023-03-20T00:23:18;10.00;99.90
32839;DHT22;19182;41.820;12.808;2023-03-20T00:25:46;9.90;99.90
32839;DHT22;19182;41.820;12.808;2023-03-20T00:28:44;9.90;99.90
32839;DHT22;19182;41.820;12.808;2023-03-20T00:33:55;10.10;99.90
32839;DHT22;19182;41.820;12.808;2023-03-20T00:36:22;10.00;99.90
32839;DHT22;19182;41.820;12.808;2023-03-20T00:38:49;9.90;99.90
32839;DHT22;19182;41.820;12.808;2023-03-20T00:46:47;10.00;99.90
32839;DHT22;19182;41.820;12.808;2023-03-20T00:49:14;10.00;99.90
32839;DHT22;19182;41.820;12.808;2023-03-20T00:55:01;9.90;99.90
32839;DHT22;19182;41.820;12.808;2023-03-20T00:57:43;9.80;99.90
32839;DHT22;19182;41.820;12.808;2023-03-20T01:02:59;9.90;99.90
32839;DHT22;19182;41.820;12.808;2023-03-20T01:05:26;9.90;99.90
32839;DHT22;19182;41.820;12.808;2023-03-20T01:07:53;9.90;99.90
32839;DHT22;19182;41.820;12.808;2023-03-20T01:10:27;9.80;99.90
32839;DHT22;19182;41.820;12.808;2023-03-20T01:12:57;9.80;99.90
32839;DHT22;19182;41.820;12.808;2023-03-20T01:15:32;9.80;99.90
32839;DHT22;19182;41.820;12.808;2023-03-20T01:17:58;9.90;99.90
32839;DHT22;19182;41.820;12.808;2023-03-20T01:20:31;9.90;99.90
32839;DHT22;19182;41.820;12.808;2023-03-20T01:22:56;9.90;99.90
32839;DHT22;19182;41.820;12.808;2023-03-20T01:25:22;9.90;99.90
32839;DHT22;19182;41.820;12.808;2023-03-20T01:27:51;10.00;99.90
32839;DHT22;19182;41.820;12.808;2023-03-20T01:32:46;10.00;99.90
32839;DHT22;19182;41.820;12.808;2023-03-20T01:35:14;10.00;99.90
32839;DHT22;19182;41.820;12.808;2023-03-20T01:37:41;10.00;99.90
32839;DHT22;19182;41.820;12.808;2023-03-20T01:42:59;10.00;99.90
32839;DHT22;19182;41.820;12.808;2023-03-20T01:45:34;10.00;99.90
32839;DHT22;19182;41.820;12.808;2023-03-20T01:48:13;9.90;99.90
32839;DHT22;19182;41.820;12.808;2023-03-20T01:50:41;9.90;99.90
32839;DHT22;19182;41.820;12.808;2023-03-20T01:53:14;9.90;99.90
32839;DHT22;19182;41.820;12.808;2023-03-20T01:55:42;9.90;99.90
32839;DHT22;19182;41.820;12.808;2023-03-20T01:58:16;9.90;99.90
32839;DHT22;19182;41.820;12.808;2023-03-20T02:00:45;10.00;99.90
32839;DHT22;19182;41.820;12.808;2023-03-20T02:03:11;10.00;99.90
32839;DHT22;19182;41.820;12.808;2023-03-20T02:05:39;9.80;99.90
32839;DHT22;19182;41.820;12.808;2023-03-20T02:08:27;9.70;99.90
32839;DHT22;19182;41.820;12.808;2023-03-20T02:10:54;9.80;99.90
32839;DHT22;19182;41.820;12.808;2023-03-20T02:13:21;9.80;99.90
32839;DHT22;19182;41.820;12.808;2023-03-20T02:16:12;9.80;99.90
32839;DHT22;19182;41.820;12.808;2023-03-20T02:18:50;9.80;99.90
32839;DHT22;19182;41.820;12.808;2023-03-20T02:21:27;9.90;99.90
32839;DHT22;19182;41.820;12.808;2023-03-20T02:27:22;9.90;99.90
32839;DHT22;19182;41.820;12.808;2023-03-20T02:45:02;9.90;99.90
32839;DHT22;19182;41.820;12.808;2023-03-20T02:47:41;9.80;99.90
32839;DHT22;19182;41.820;12.808;2023-03-20T02:57:06;9.80;99.90
32839;DHT22;19182;41.820;12.808;2023-03-20T03:00:17;9.90;99.90
32839;DHT22;19182;41.820;12.808;2023-03-20T03:03:19;9.90;99.90
32839;DHT22;19182;41.820;12.808;2023-03-20T03:09:12;9.80;99.90
32839;DHT22;19182;41.820;12.808;2023-03-20T03:11:52;9.70;99.90
32839;DHT22;19182;41.820;12.808;2023-03-20T03:14:29;9.70;99.90
32839;DHT22;19182;41.820;12.808;2023-03-20T03:16:59;9.90;99.90
32839;DHT22;19182;41.820;12.808;2023-03-20T03:19:28;9.80;99.90
32839;DHT22;19182;41.820;12.808;2023-03-20T03:21:56;9.90;99.90
32839;DHT22;19182;41.820;12.808;2023-03-20T03:24:34;9.70;99.90
32839;DHT22;19182;41.820;12.808;2023-03-20T03:27:05;9.70;99.90
32839;DHT22;19182;41.820;12.808;2023-03-20T03:29:36;9.70;99.90
32839;DHT22;19182;41.820;12.808;2023-03-20T03:32:06;9.70;99.90
32839;DHT22;19182;41.820;12.808;2023-03-20T03:34:45;9.70;99.90
32839;DHT22;19182;41.820;12.808;2023-03-20T03:37:31;9.70;99.90
32839;DHT22;19182;41.820;12.808;2023-03-20T03:42:51;9.70;99.90
32839;DHT22;19182;41.820;12.808;2023-03-20T03:45:32;9.60;99.90
32839;DHT22;19182;41.820;12.808;2023-03-20T03:48:06;9.60;99.90
32839;DHT22;19182;41.820;12.808;2023-03-20T03:50:47;9.80;99.90
32839;DHT22;19182;41.820;12.808;2023-03-20T03:53:19;9.70;99.90
32839;DHT22;19182;41.820;12.808;2023-03-20T03:55:52;9.60;99.90
32839;DHT22;19182;41.820;12.808;2023-03-20T03:58:46;9.60;99.90
32839;DHT22;19182;41.820;12.808;2023-03-20T04:01:17;9.60;99.90
32839;DHT22;19182;41.820;12.808;2023-03-20T04:03:48;9.60;99.90
32839;DHT22;19182;41.820;12.808;2023-03-20T04:06:26;9.60;99.90
32839;DHT22;19182;41.820;12.808;2023-03-20T04:08:52;9.60;99.90
32839;DHT22;19182;41.820;12.808;2023-03-20T04:11:20;9.60;99.90
32839;DHT22;19182;41.820;12.808;2023-03-20T04:13:48;9.70;99.90
32839;DHT22;19182;41.820;12.808;2023-03-20T04:16:15;9.60;99.90
32839;DHT22;19182;41.820;12.808;2023-03-20T04:18:42;9.60;99.90
32839;DHT22;19182;41.820;12.808;2023-03-20T04:21:08;9.70;99.90
32839;DHT22;19182;41.820;12.808;2023-03-20T04:23:38;9.70;99.90
32839;DHT22;19182;41.820;12.808;2023-03-20T04:26:04;9.70;99.90
32839;DHT22;19182;41.820;12.808;2023-03-20T04:28:31;9.70;99.90
32839;DHT22;19182;41.820;12.808;2023-03-20T04:30:58;9.70;99.90
32839;DHT22;19182;41.820;12.808;2023-03-20T04:33:28;9.60;99.90
32839;DHT22;19182;41.820;12.808;2023-03-20T04:35:54;9.60;99.90
32839;DHT22;19182;41.820;12.808;2023-03-20T04:38:20;9.60;99.90
32839;DHT22;19182;41.820;12.808;2023-03-20T04:40:47;9.50;99.90
32839;DHT22;19182;41.820;12.808;2023-03-20T04:43:15;9.60;99.90
32839;DHT22;19182;41.820;12.808;2023-03-20T04:45:40;9.50;99.90
32839;DHT22;19182;41.820;12.808;2023-03-20T04:48:07;9.40;99.90
32839;DHT22;19182;41.820;12.808;2023-03-20T04:50:33;9.40;99.90
32839;DHT22;19182;41.820;12.808;2023-03-20T04:53:01;9.60;99.90
32839;DHT22;19182;41.820;12.808;2023-03-20T04:55:27;9.50;99.90
32839;DHT22;19182;41.820;12.808;2023-03-20T04:57:53;9.40;99.90
32839;DHT22;19182;41.820;12.808;2023-03-20T05:00:19;9.40;99.90
32839;DHT22;19182;41.820;12.808;2023-03-20T05:02:45;9.40;99.90
32839;DHT22;19182;41.820;12.808;2023-03-20T05:05:11;9.50;99.90
32839;DHT22;19182;41.820;12.808;2023-03-20T05:07:37;9.50;99.90
32839;DHT22;19182;41.820;12.808;2023-03-20T05:10:07;9.50;99.90
32839;DHT22;19182;41.820;12.808;2023-03-20T05:12:34;9.40;99.90
32839;DHT22;19182;41.820;12.808;2023-03-20T05:14:59;9.40;99.90
32839;DHT22;19182;41.820;12.808;2023-03-20T05:17:26;9.50;99.90
32839;DHT22;19182;41.820;12.808;2023-03-20T05:19:55;9.50;99.90
32839;DHT22;19182;41.820;12.808;2023-03-20T05:22:22;9.60;99.90
32839;DHT22;19182;41.820;12.808;2023-03-20T05:24:47;9.60;99.90
32839;DHT22;19182;41.820;12.808;2023-03-20T05:27:13;9.60;99.90
32839;DHT22;19182;41.820;12.808;2023-03-20T05:29:42;9.70;99.90
32839;DHT22;19182;41.820;12.808;2023-03-20T05:32:15;9.80;99.90
32839;DHT22;19182;41.820;12.808;2023-03-20T05:34:40;9.80;99.90
32839;DHT22;19182;41.820;12.808;2023-03-20T05:37:06;9.90;99.90
32839;DHT22;19182;41.820;12.808;2023-03-20T05:39:32;9.90;99.90
32839;DHT22;19182;41.820;12.808;2023-03-20T05:41:58;10.00;99.90
32839;DHT22;19182;41.820;12.808;2023-03-20T05:44:23;9.90;99.90
32839;DHT22;19182;41.820;12.808;2023-03-20T05:46:49;10.00;99.90
32839;DHT22;19182;41.820;12.808;2023-03-20T05:49:15;10.00;99.90
32839;DHT22;19182;41.820;12.808;2023-03-20T05:51:41;10.00;99.90
32839;DHT22;19182;41.820;12.808;2023-03-20T05:54:07;10.10;99.90
32839;DHT22;19182;41.820;12.808;2023-03-20T05:56:35;10.10;99.90
32839;DHT22;19182;41.820;12.808;2023-03-20T05:59:01;10.10;99.90
32839;DHT22;19182;41.820;12.808;2023-03-20T06:01:27;10.10;99.90
32839;DHT22;19182;41.820;12.808;2023-03-20T06:03:54;10.10;99.90
32839;DHT22;19182;41.820;12.808;2023-03-20T06:06:20;10.20;99.90
32839;DHT22;19182;41.820;12.808;2023-03-20T06:08:46;10.20;99.90
32839;DHT22;19182;41.820;12.808;2023-03-20T06:11:12;10.20;99.90
32839;DHT22;19182;41.820;12.808;2023-03-20T06:13:38;10.30;99.90
32839;DHT22;19182;41.820;12.808;2023-03-20T06:16:04;10.30;99.90
32839;DHT22;19182;41.820;12.808;2023-03-20T06:18:30;10.30;99.90
32839;DHT22;19182;41.820;12.808;2023-03-20T06:20:57;10.20;99.90
32839;DHT22;19182;41.820;12.808;2023-03-20T06:23:23;10.20;99.90
32839;DHT22;19182;41.820;12.808;2023-03-20T06:25:49;10.20;99.90
32839;DHT22;19182;41.820;12.808;2023-03-20T06:28:16;10.30;99.90
32839;DHT22;19182;41.820;12.808;2023-03-20T06:30:43;10.20;99.90
32839;DHT22;19182;41.820;12.808;2023-03-20T06:33:09;10.20;99.90
32839;DHT22;19182;41.820;12.808;2023-03-20T06:35:35;10.10;99.90
32839;DHT22;19182;41.820;12.808;2023-03-20T06:38:01;10.20;99.90
32839;DHT22;19182;41.820;12.808;2023-03-20T06:40:27;10.30;99.90
32839;DHT22;19182;41.820;12.808;2023-03-20T06:42:53;10.20;99.90
32839;DHT22;19182;41.820;12.808;2023-03-20T06:45:20;10.20;99.90
32839;DHT22;19182;41.820;12.808;2023-03-20T06:47:46;10.10;99.90
32839;DHT22;19182;41.820;12.808;2023-03-20T06:50:13;10.10;99.90
32839;DHT22;19182;41.820;12.808;2023-03-20T06:52:39;10.10;99.90
32839;DHT22;19182;41.820;12.808;2023-03-20T06:55:05;10.10;99.90
32839;DHT22;19182;41.820;12.808;2023-03-20T06:57:32;10.20;99.90
32839;DHT22;19182;41.820;12.808;2023-03-20T06:59:58;10.30;99.90
32839;DHT22;19182;41.820;12.808;2023-03-20T07:02:24;10.50;99.90
32839;DHT22;19182;41.820;12.808;2023-03-20T07:04:50;10.40;99.90
32839;DHT22;19182;41.820;12.808;2023-03-20T07:07:17;10.40;99.90
32839;DHT22;19182;41.820;12.808;2023-03-20T07:09:46;10.40;99.90
32839;DHT22;19182;41.820;12.808;2023-03-20T07:12:13;10.50;99.90
32839;DHT22;19182;41.820;12.808;2023-03-20T07:14:40;10.60;99.90
32839;DHT22;19182;41.820;12.808;2023-03-20T07:17:07;10.60;99.90
32839;DHT22;19182;41.820;12.808;2023-03-20T07:19:37;10.60;99.90
32839;DHT22;19182;41.820;12.808;2023-03-20T07:22:05;10.70;99.90
32839;DHT22;19182;41.820;12.808;2023-03-20T07:24:32;10.70;99.90
32839;DHT22;19182;41.820;12.808;2023-03-20T07:27:02;10.80;99.90
32839;DHT22;19182;41.820;12.808;2023-03-20T07:29:27;10.90;99.90
32839;DHT22;19182;41.820;12.808;2023-03-20T07:31:53;10.80;99.90
32839;DHT22;19182;41.820;12.808;2023-03-20T07:34:20;10.80;99.90
32839;DHT22;19182;41.820;12.808;2023-03-20T07:36:46;10.80;99.90
32839;DHT22;19182;41.820;12.808;2023-03-20T07:39:13;10.90;99.90
32839;DHT22;19182;41.820;12.808;2023-03-20T07:41:38;11.00;99.90
32839;DHT22;19182;41.820;12.808;2023-03-20T07:44:04;11.00;99.90
32839;DHT22;19182;41.820;12.808;2023-03-20T07:46:32;10.90;99.90
32839;DHT22;19182;41.820;12.808;2023-03-20T07:48:58;10.90;99.90
32839;DHT22;19182;41.820;12.808;2023-03-20T07:51:25;10.80;99.90
32839;DHT22;19182;41.820;12.808;2023-03-20T07:53:51;10.90;99.90
32839;DHT22;19182;41.820;12.808;2023-03-20T07:56:18;11.00;99.90
32839;DHT22;19182;41.820;12.808;2023-03-20T07:58:43;11.10;99.90
32839;DHT22;19182;41.820;12.808;2023-03-20T08:01:09;11.10;99.90
32839;DHT22;19182;41.820;12.808;2023-03-20T08:03:35;11.00;99.90
32839;DHT22;19182;41.820;12.808;2023-03-20T08:06:03;11.10;99.90
32839;DHT22;19182;41.820;12.808;2023-03-20T08:08:32;11.10;99.90
32839;DHT22;19182;41.820;12.808;2023-03-20T08:10:58;11.00;99.90
32839;DHT22;19182;41.820;12.808;2023-03-20T08:13:24;11.00;99.90
32839;DHT22;19182;41.820;12.808;2023-03-20T08:15:51;11.10;99.90
32839;DHT22;19182;41.820;12.808;2023-03-20T08:18:18;11.10;99.90
32839;DHT22;19182;41.820;12.808;2023-03-20T08:20:47;11.10;99.90
32839;DHT22;19182;41.820;12.808;2023-03-20T08:23:15;11.20;99.90
32839;DHT22;19182;41.820;12.808;2023-03-20T08:25:45;11.20;99.90
32839;DHT22;19182;41.820;12.808;2023-03-20T08:28:12;11.20;99.90
32839;DHT22;19182;41.820;12.808;2023-03-20T08:30:37;11.20;99.90
32839;DHT22;19182;41.820;12.808;2023-03-20T08:33:03;11.30;99.90
32839;DHT22;19182;41.820;12.808;2023-03-20T08:35:29;11.30;99.90
32839;DHT22;19182;41.820;12.808;2023-03-20T08:37:55;11.30;99.90
32839;DHT22;19182;41.820;12.808;2023-03-20T08:40:21;11.30;99.90
32839;DHT22;19182;41.820;12.808;2023-03-20T08:42:47;11.30;99.90
32839;DHT22;19182;41.820;12.808;2023-03-20T08:45:13;11.30;99.90
32839;DHT22;19182;41.820;12.808;2023-03-20T08:47:39;11.30;99.90
32839;DHT22;19182;41.820;12.808;2023-03-20T08:50:05;11.30;99.90
32839;DHT22;19182;41.820;12.808;2023-03-20T08:52:32;11.40;99.90
32839;DHT22;19182;41.820;12.808;2023-03-20T08:54:58;11.50;99.90
32839;DHT22;19182;41.820;12.808;2023-03-20T08:57:24;11.40;99.90
32839;DHT22;19182;41.820;12.808;2023-03-20T08:59:50;11.50;99.90
32839;DHT22;19182;41.820;12.808;2023-03-20T09:02:16;11.40;99.90
32839;DHT22;19182;41.820;12.808;2023-03-20T09:04:42;11.50;99.90
32839;DHT22;19182;41.820;12.808;2023-03-20T09:07:08;11.40;99.90
32839;DHT22;19182;41.820;12.808;2023-03-20T09:09:33;11.50;99.90
32839;DHT22;19182;41.820;12.808;2023-03-20T09:12:01;11.50;99.90
32839;DHT22;19182;41.820;12.808;2023-03-20T09:14:27;11.60;99.90
32839;DHT22;19182;41.820;12.808;2023-03-20T09:16:53;11.60;99.90
32839;DHT22;19182;41.820;12.808;2023-03-20T09:19:19;11.60;99.90
32839;DHT22;19182;41.820;12.808;2023-03-20T09:21:46;11.70;99.90
32839;DHT22;19182;41.820;12.808;2023-03-20T09:24:12;11.70;99.90
32839;DHT22;19182;41.820;12.808;2023-03-20T09:26:41;11.70;99.90
32839;DHT22;19182;41.820;12.808;2023-03-20T09:29:07;11.80;99.90
32839;DHT22;19182;41.820;12.808;2023-03-20T09:31:35;11.80;99.90
32839;DHT22;19182;41.820;12.808;2023-03-20T09:34:01;11.80;99.90
32839;DHT22;19182;41.820;12.808;2023-03-20T09:36:29;11.90;99.90
32839;DHT22;19182;41.820;12.808;2023-03-20T09:38:55;11.90;99.90
32839;DHT22;19182;41.820;12.808;2023-03-20T09:41:23;12.00;99.90
32839;DHT22;19182;41.820;12.808;2023-03-20T09:46:48;12.00;99.90
32839;DHT22;19182;41.820;12.808;2023-03-20T09:49:32;12.10;99.90
32839;DHT22;19182;41.820;12.808;2023-03-20T09:52:22;12.10;99.90
32839;DHT22;19182;41.820;12.808;2023-03-20T09:58:10;12.10;99.90
32839;DHT22;19182;41.820;12.808;2023-03-20T10:00:33;12.20;99.90
32839;DHT22;19182;41.820;12.808;2023-03-20T10:05:49;12.30;99.90
32839;DHT22;19182;41.820;12.808;2023-03-20T10:08:28;12.20;99.90
32839;DHT22;19182;41.820;12.808;2023-03-20T10:11:31;12.40;99.90
32839;DHT22;19182;41.820;12.808;2023-03-20T10:17:44;12.50;99.90
32839;DHT22;19182;41.820;12.808;2023-03-20T10:22:58;12.70;99.90
32839;DHT22;19182;41.820;12.808;2023-03-20T10:25:31;12.80;99.90
32839;DHT22;19182;41.820;12.808;2023-03-20T10:28:05;12.80;99.90
32839;DHT22;19182;41.820;12.808;2023-03-20T10:39:59;13.20;99.90
32839;DHT22;19182;41.820;12.808;2023-03-20T10:42:33;13.30;99.90
32839;DHT22;19182;41.820;12.808;2023-03-20T10:45:32;13.30;99.90
32839;DHT22;19182;41.820;12.808;2023-03-20T10:48:05;13.40;99.90
32839;DHT22;19182;41.820;12.808;2023-03-20T10:50:44;13.50;99.90
32839;DHT22;19182;41.820;12.808;2023-03-20T10:53:21;13.60;99.90
32839;DHT22;19182;41.820;12.808;2023-03-20T10:55:50;13.70;99.90
32839;DHT22;19182;41.820;12.808;2023-03-20T10:58:22;13.70;99.90
32839;DHT22;19182;41.820;12.808;2023-03-20T11:00:48;13.90;99.90
32839;DHT22;19182;41.820;12.808;2023-03-20T11:03:43;13.90;99.90
32839;DHT22;19182;41.820;12.808;2023-03-20T11:06:19;14.00;99.90
32839;DHT22;19182;41.820;12.808;2023-03-20T11:08:52;14.00;99.90
32839;DHT22;19182;41.820;12.808;2023-03-20T11:11:26;13.80;99.90
32839;DHT22;19182;41.820;12.808;2023-03-20T11:13:53;13.70;99.90
32839;DHT22;19182;41.820;12.808;2023-03-20T11:16:38;13.70;99.90
32839;DHT22;19182;41.820;12.808;2023-03-20T11:19:06;13.50;99.90
32839;DHT22;19182;41.820;12.808;2023-03-20T11:21:36;13.50;99.90
32839;DHT22;19182;41.820;12.808;2023-03-20T11:24:40;13.50;99.90
32839;DHT22;19182;41.820;12.808;2023-03-20T11:27:11;13.40;99.90
32839;DHT22;19182;41.820;12.808;2023-03-20T11:29:38;13.30;99.90
32839;DHT22;19182;41.820;12.808;2023-03-20T11:35:17;13.30;99.90
32839;DHT22;19182;41.820;12.808;2023-03-20T11:37:45;13.40;99.90
32839;DHT22;19182;41.820;12.808;2023-03-20T11:40:31;13.40;99.90
32839;DHT22;19182;41.820;12.808;2023-03-20T11:43:20;13.40;99.90
32839;DHT22;19182;41.820;12.808;2023-03-20T11:45:54;13.20;99.90
32839;DHT22;19182;41.820;12.808;2023-03-20T11:48:34;13.00;99.90
32839;DHT22;19182;41.820;12.808;2023-03-20T11:51:23;12.90;99.90
32839;DHT22;19182;41.820;12.808;2023-03-20T11:53:54;12.70;99.90
32839;DHT22;19182;41.820;12.808;2023-03-20T11:56:26;11.60;99.90
32839;DHT22;19182;41.820;12.808;2023-03-20T11:59:14;12.80;99.90
32839;DHT22;19182;41.820;12.808;2023-03-20T12:01:50;12.80;99.90
32839;DHT22;19182;41.820;12.808;2023-03-20T12:04:38;12.80;99.90
32839;DHT22;19182;41.820;12.808;2023-03-20T12:07:29;12.20;99.90
32839;DHT22;19182;41.820;12.808;2023-03-20T12:10:09;12.70;99.90
32839;DHT22;19182;41.820;12.808;2023-03-20T12:15:25;12.60;99.90
32839;DHT22;19182;41.820;12.808;2023-03-20T12:23:36;12.50;99.90
32839;DHT22;19182;41.820;12.808;2023-03-20T12:29:31;12.50;99.90
32839;DHT22;19182;41.820;12.808;2023-03-20T12:34:56;12.60;99.90
32839;DHT22;19182;41.820;12.808;2023-03-20T12:37:25;12.60;99.90
32839;DHT22;19182;41.820;12.808;2023-03-20T12:39:53;12.60;99.90
32839;DHT22;19182;41.820;12.808;2023-03-20T12:42:41;12.70;99.90
32839;DHT22;19182;41.820;12.808;2023-03-20T12:59:37;12.60;99.90
32839;DHT22;19182;41.820;12.808;2023-03-20T13:05:43;12.60;99.90
32839;DHT22;19182;41.820;12.808;2023-03-20T13:14:00;12.60;99.90
32839;DHT22;19182;41.820;12.808;2023-03-20T13:16:53;12.50;99.90
32839;DHT22;19182;41.820;12.808;2023-03-20T13:19:44;12.50;99.90
32839;DHT22;19182;41.820;12.808;2023-03-20T13:22:14;12.40;99.90
32839;DHT22;19182;41.820;12.808;2023-03-20T13:24:48;12.40;99.90
32839;DHT22;19182;41.820;12.808;2023-03-20T13:27:48;12.40;99.90
32839;DHT22;19182;41.820;12.808;2023-03-20T13:31:15;14.90;99.90
32839;DHT22;19182;41.820;12.808;2023-03-20T13:36:58;12.40;99.90
32839;DHT22;19182;41.820;12.808;2023-03-20T13:41:54;12.40;99.90
32839;DHT22;19182;41.820;12.808;2023-03-20T13:44:22;12.40;99.90
32839;DHT22;19182;41.820;12.808;2023-03-20T13:46:55;12.50;99.90
32839;DHT22;19182;41.820;12.808;2023-03-20T13:49:35;12.50;99.90
32839;DHT22;19182;41.820;12.808;2023-03-20T13:54:45;12.50;99.90
32839;DHT22;19182;41.820;12.808;2023-03-20T14:05:47;12.60;99.90
32839;DHT22;19182;41.820;12.808;2023-03-20T14:10:45;12.60;99.90
32839;DHT22;19182;41.820;12.808;2023-03-20T14:13:17;12.60;99.90
32839;DHT22;19182;41.820;12.808;2023-03-20T14:15:55;12.50;99.90
32839;DHT22;19182;41.820;12.808;2023-03-20T14:18:24;12.60;99.90
32839;DHT22;19182;41.820;12.808;2023-03-20T14:20:56;12.50;99.90
32839;DHT22;19182;41.820;12.808;2023-03-20T14:23:41;12.50;99.90
32839;DHT22;19182;41.820;12.808;2023-03-20T14:26:25;12.50;99.90
32839;DHT22;19182;41.820;12.808;2023-03-20T14:28:59;12.40;99.90
32839;DHT22;19182;41.820;12.808;2023-03-20T14:31:30;12.30;99.90
32839;DHT22;19182;41.820;12.808;2023-03-20T14:34:18;12.20;99.90
32839;DHT22;19182;41.820;12.808;2023-03-20T14:37:02;12.30;99.90
32839;DHT22;19182;41.820;12.808;2023-03-20T14:40:15;12.20;99.90
32839;DHT22;19182;41.820;12.808;2023-03-20T14:45:37;12.00;99.90
32839;DHT22;19182;41.820;12.808;2023-03-20T14:51:29;12.10;99.90
32839;DHT22;19182;41.820;12.808;2023-03-20T14:54:21;12.30;99.90
32839;DHT22;19182;41.820;12.808;2023-03-20T14:56:44;12.40;99.90
32839;DHT22;19182;41.820;12.808;2023-03-20T14:59:11;12.40;99.90
32839;DHT22;19182;41.820;12.808;2023-03-20T15:04:40;12.60;99.90
32839;DHT22;19182;41.820;12.808;2023-03-20T15:07:26;12.60;99.90
32839;DHT22;19182;41.820;12.808;2023-03-20T15:09:56;12.60;99.90
32839;DHT22;19182;41.820;12.808;2023-03-20T15:12:25;12.70;99.90
32839;DHT22;19182;41.820;12.808;2023-03-20T15:15:04;12.60;99.90
32839;DHT22;19182;41.820;12.808;2023-03-20T15:17:44;12.70;99.90
32839;DHT22;19182;41.820;12.808;2023-03-20T15:22:56;12.80;99.90
32839;DHT22;19182;41.820;12.808;2023-03-20T15:25:28;12.80;99.90
32839;DHT22;19182;41.820;12.808;2023-03-20T15:27:55;12.70;99.90
32839;DHT22;19182;41.820;12.808;2023-03-20T15:30:40;12.70;99.90
32839;DHT22;19182;41.820;12.808;2023-03-20T15:33:09;12.60;99.90
32839;DHT22;19182;41.820;12.808;2023-03-20T15:35:39;12.50;99.90
32839;DHT22;19182;41.820;12.808;2023-03-20T15:38:06;12.50;99.90
32839;DHT22;19182;41.820;12.808;2023-03-20T15:40:33;12.50;99.90
32839;DHT22;19182;41.820;12.808;2023-03-20T15:43:20;12.50;99.90
32839;DHT22;19182;41.820;12.808;2023-03-20T15:45:48;12.50;99.90
32839;DHT22;19182;41.820;12.808;2023-03-20T15:48:20;12.40;99.90
32839;DHT22;19182;41.820;12.808;2023-03-20T15:50:58;12.40;99.90
32839;DHT22;19182;41.820;12.808;2023-03-20T15:56:06;12.30;99.90
32839;DHT22;19182;41.820;12.808;2023-03-20T15:58:33;12.20;99.90
32839;DHT22;19182;41.820;12.808;2023-03-20T16:01:00;12.00;99.90
32839;DHT22;19182;41.820;12.808;2023-03-20T16:03:27;12.00;99.90
32839;DHT22;19182;41.820;12.808;2023-03-20T16:05:57;12.00;99.90
32839;DHT22;19182;41.820;12.808;2023-03-20T16:08:29;12.00;99.90
32839;DHT22;19182;41.820;12.808;2023-03-20T16:11:06;12.00;99.90
32839;DHT22;19182;41.820;12.808;2023-03-20T16:13:36;12.00;99.90
32839;DHT22;19182;41.820;12.808;2023-03-20T16:16:05;12.00;99.90
32839;DHT22;19182;41.820;12.808;2023-03-20T16:18:36;11.90;99.90
32839;DHT22;19182;41.820;12.808;2023-03-20T16:21:08;11.90;99.90
32839;DHT22;19182;41.820;12.808;2023-03-20T16:23:43;11.90;99.90
32839;DHT22;19182;41.820;12.808;2023-03-20T16:26:16;11.80;99.90
32839;DHT22;19182;41.820;12.808;2023-03-20T16:28:45;11.80;99.90
32839;DHT22;19182;41.820;12.808;2023-03-20T16:31:15;11.90;99.90
32839;DHT22;19182;41.820;12.808;2023-03-20T16:33:42;11.80;99.90
32839;DHT22;19182;41.820;12.808;2023-03-20T16:36:16;11.80;99.90
32839;DHT22;19182;41.820;12.808;2023-03-20T16:39:08;11.80;99.90
32839;DHT22;19182;41.820;12.808;2023-03-20T16:41:39;11.60;99.90
32839;DHT22;19182;41.820;12.808;2023-03-20T16:44:20;11.60;99.90
32839;DHT22;19182;41.820;12.808;2023-03-20T16:52:13;11.60;99.90
32839;DHT22;19182;41.820;12.808;2023-03-20T16:54:40;11.60;99.90
32839;DHT22;19182;41.820;12.808;2023-03-20T16:57:14;11.60;99.90
32839;DHT22;19182;41.820;12.808;2023-03-20T16:59:42;11.60;99.90
32839;DHT22;19182;41.820;12.808;2023-03-20T17:02:31;11.60;99.90
32839;DHT22;19182;41.820;12.808;2023-03-20T17:05:11;11.60;99.90
32839;DHT22;19182;41.820;12.808;2023-03-20T17:07:37;11.50;99.90
32839;DHT22;19182;41.820;12.808;2023-03-20T17:10:20;11.50;99.90
32839;DHT22;19182;41.820;12.808;2023-03-20T17:12:47;11.50;99.90
32839;DHT22;19182;41.820;12.808;2023-03-20T17:15:21;11.50;99.90
32839;DHT22;19182;41.820;12.808;2023-03-20T17:17:47;11.50;99.90
32839;DHT22;19182;41.820;12.808;2023-03-20T17:20:25;11.50;99.90
32839;DHT22;19182;41.820;12.808;2023-03-20T17:22:52;11.50;99.90
32839;DHT22;19182;41.820;12.808;2023-03-20T17:25:19;11.50;99.90
32839;DHT22;19182;41.820;12.808;2023-03-20T17:27:46;11.50;99.90
32839;DHT22;19182;41.820;12.808;2023-03-20T17:30:25;11.50;99.90
32839;DHT22;19182;41.820;12.808;2023-03-20T17:32:54;11.40;99.90
32839;DHT22;19182;41.820;12.808;2023-03-20T17:35:22;11.40;99.90
32839;DHT22;19182;41.820;12.808;2023-03-20T17:37:48;11.40;99.90
32839;DHT22;19182;41.820;12.808;2023-03-20T17:40:19;11.40;99.90
32839;DHT22;19182;41.820;12.808;2023-03-20T17:42:46;11.50;99.90
32839;DHT22;19182;41.820;12.808;2023-03-20T17:45:14;11.50;99.90
32839;DHT22;19182;41.820;12.808;2023-03-20T17:47:41;11.50;99.90
32839;DHT22;19182;41.820;12.808;2023-03-20T17:50:19;11.40;99.90
32839;DHT22;19182;41.820;12.808;2023-03-20T17:52:46;11.40;99.90
32839;DHT22;19182;41.820;12.808;2023-03-20T17:55:11;11.40;99.90
32839;DHT22;19182;41.820;12.808;2023-03-20T17:57:38;11.40;99.90
32839;DHT22;19182;41.820;12.808;2023-03-20T18:00:17;11.40;99.90
32839;DHT22;19182;41.820;12.808;2023-03-20T18:02:43;11.40;99.90
32839;DHT22;19182;41.820;12.808;2023-03-20T18:05:09;11.40;99.90
32839;DHT22;19182;41.820;12.808;2023-03-20T18:07:35;11.40;99.90
32839;DHT22;19182;41.820;12.808;2023-03-20T18:10:03;11.40;99.90
32839;DHT22;19182;41.820;12.808;2023-03-20T18:12:29;11.50;99.90
32839;DHT22;19182;41.820;12.808;2023-03-20T18:14:55;11.50;99.90
32839;DHT22;19182;41.820;12.808;2023-03-20T18:17:21;11.40;99.90
32839;DHT22;19182;41.820;12.808;2023-03-20T18:19:46;11.50;99.90
32839;DHT22;19182;41.820;12.808;2023-03-20T18:22:13;11.40;99.90